Ocotillo, California
Current Conditions -  °F | °C
As of 7:56 PM on Wednesday 22 Oct 2014 (Local Time) from KNJK Reporting Station
Few Clouds Few Clouds  
Wind Chill: 80°   Ceiling: Unl
Heat Index: 80°   Visibility: 10mi
Dew Point: 45°   Wind: 3mph
Humidity: 29%   Direction: 290°WNW
Pressure: 29.87"   Gusts: NA
Location:  32.74°N, 115.99°W
Report Text: KNJK 230256Z 29003KT 10SM FEW200 27/07 A2987 RMK AO2 SLP129 T02670072 53012
Loading
Personal Weather Stations






























Interactive Weather Map
Tropical Storm Tracking
New forecast layout! Learn more

10-Day Weather Forecast

Advertisements
Track Severe Weather on mobile